sensor_id;sensor_type;location;lat;lon;timestamp;pressure;altitude;pressure_sealevel;temperature;humidity
8059;BME280;75058;42.668;23.396;2024-03-08T00:00:31;95211.69;;;4.73;74.31
8059;BME280;75058;42.668;23.396;2024-03-08T00:03:01;95217.81;;;4.87;73.82
8059;BME280;75058;42.668;23.396;2024-03-08T00:05:30;95207.56;;;4.79;74.04
8059;BME280;75058;42.668;23.396;2024-03-08T00:07:58;95207.31;;;4.74;73.65
8059;BME280;75058;42.668;23.396;2024-03-08T00:10:26;95217.31;;;4.98;73.38
8059;BME280;75058;42.668;23.396;2024-03-08T00:12:55;95216.66;;;4.89;73.05
8059;BME280;75058;42.668;23.396;2024-03-08T00:15:24;95218.41;;;4.67;73.95
8059;BME280;75058;42.668;23.396;2024-03-08T00:17:52;95218.31;;;4.97;73.78
8059;BME280;75058;42.668;23.396;2024-03-08T00:20:22;95216.44;;;4.91;73.05
8059;BME280;75058;42.668;23.396;2024-03-08T00:22:50;95213.31;;;4.74;73.57
8059;BME280;75058;42.668;23.396;2024-03-08T00:25:18;95205.59;;;4.81;74.32
8059;BME280;75058;42.668;23.396;2024-03-08T00:27:46;95213.66;;;4.71;74.39
8059;BME280;75058;42.668;23.396;2024-03-08T00:30:16;95204.47;;;4.68;74.26
8059;BME280;75058;42.668;23.396;2024-03-08T00:32:44;95202.31;;;4.72;74.68
8059;BME280;75058;42.668;23.396;2024-03-08T00:35:12;95209.94;;;4.59;74.35
8059;BME280;75058;42.668;23.396;2024-03-08T00:37:42;95208.59;;;4.63;73.94
8059;BME280;75058;42.668;23.396;2024-03-08T00:40:10;95201.09;;;4.53;75.26
8059;BME280;75058;42.668;23.396;2024-03-08T00:42:38;95191.88;;;4.44;75.52
8059;BME280;75058;42.668;23.396;2024-03-08T00:45:08;95197.47;;;4.48;75.19
8059;BME280;75058;42.668;23.396;2024-03-08T00:47:37;95193.75;;;4.36;75.46
8059;BME280;75058;42.668;23.396;2024-03-08T00:50:07;95188.56;;;4.36;75.56
8059;BME280;75058;42.668;23.396;2024-03-08T00:52:35;95191.25;;;4.28;76.32
8059;BME280;75058;42.668;23.396;2024-03-08T00:55:05;95182.50;;;4.29;76.16
8059;BME280;75058;42.668;23.396;2024-03-08T00:57:34;95182.44;;;4.22;76.47
8059;BME280;75058;42.668;23.396;2024-03-08T01:00:03;95182.09;;;4.11;76.73
8059;BME280;75058;42.668;23.396;2024-03-08T01:02:32;95177.59;;;4.19;77.02
8059;BME280;75058;42.668;23.396;2024-03-08T01:05:02;95174.78;;;4.14;76.96
8059;BME280;75058;42.668;23.396;2024-03-08T01:07:32;95170.22;;;4.16;77.20
8059;BME280;75058;42.668;23.396;2024-03-08T01:10:01;95167.78;;;4.29;77.12
8059;BME280;75058;42.668;23.396;2024-03-08T01:12:30;95172.66;;;4.03;76.70
8059;BME280;75058;42.668;23.396;2024-03-08T01:14:58;95171.41;;;3.99;77.10
8059;BME280;75058;42.668;23.396;2024-03-08T01:17:26;95171.94;;;3.95;77.26
8059;BME280;75058;42.668;23.396;2024-03-08T01:19:54;95176.69;;;3.91;77.01
8059;BME280;75058;42.668;23.396;2024-03-08T01:22:22;95172.91;;;3.93;77.47
8059;BME280;75058;42.668;23.396;2024-03-08T01:24:50;95162.03;;;3.98;77.71
8059;BME280;75058;42.668;23.396;2024-03-08T01:27:18;95165.06;;;4.02;77.57
8059;BME280;75058;42.668;23.396;2024-03-08T01:29:48;95160.69;;;4.02;78.08
8059;BME280;75058;42.668;23.396;2024-03-08T01:32:16;95164.25;;;4.01;77.63
8059;BME280;75058;42.668;23.396;2024-03-08T01:34:44;95150.97;;;4.04;77.40
8059;BME280;75058;42.668;23.396;2024-03-08T01:37:12;95158.66;;;3.98;76.91
8059;BME280;75058;42.668;23.396;2024-03-08T01:39:41;95156.38;;;4.09;76.40
8059;BME280;75058;42.668;23.396;2024-03-08T01:42:09;95152.78;;;4.25;75.92
8059;BME280;75058;42.668;23.396;2024-03-08T01:44:38;95156.03;;;4.12;75.54
8059;BME280;75058;42.668;23.396;2024-03-08T01:47:08;95158.47;;;3.99;75.96
8059;BME280;75058;42.668;23.396;2024-03-08T01:49:36;95151.28;;;4.16;75.87
8059;BME280;75058;42.668;23.396;2024-03-08T01:52:05;95160.69;;;4.02;75.89
8059;BME280;75058;42.668;23.396;2024-03-08T01:54:34;95154.88;;;4.15;76.54
8059;BME280;75058;42.668;23.396;2024-03-08T01:57:03;95143.75;;;4.00;75.68
8059;BME280;75058;42.668;23.396;2024-03-08T01:59:31;95150.31;;;4.02;75.81
8059;BME280;75058;42.668;23.396;2024-03-08T02:02:01;95151.94;;;4.03;76.10
8059;BME280;75058;42.668;23.396;2024-03-08T02:04:31;95145.22;;;4.23;75.84
8059;BME280;75058;42.668;23.396;2024-03-08T02:06:59;95142.75;;;4.36;75.48
8059;BME280;75058;42.668;23.396;2024-03-08T02:09:27;95145.94;;;4.53;75.42
8059;BME280;75058;42.668;23.396;2024-03-08T02:11:56;95142.25;;;4.68;74.25
8059;BME280;75058;42.668;23.396;2024-03-08T02:14:25;95148.72;;;4.73;73.78
8059;BME280;75058;42.668;23.396;2024-03-08T02:16:52;95151.53;;;4.78;73.75
8059;BME280;75058;42.668;23.396;2024-03-08T02:19:20;95143.84;;;5.12;72.81
8059;BME280;75058;42.668;23.396;2024-03-08T02:21:50;95142.56;;;5.01;72.05
8059;BME280;75058;42.668;23.396;2024-03-08T02:24:18;95145.25;;;5.14;72.39
8059;BME280;75058;42.668;23.396;2024-03-08T02:26:46;95144.28;;;4.94;72.26
8059;BME280;75058;42.668;23.396;2024-03-08T02:29:14;95152.41;;;4.85;72.96
8059;BME280;75058;42.668;23.396;2024-03-08T02:31:42;95075.53;;;4.28;73.59
8059;BME280;75058;42.668;23.396;2024-03-08T02:34:10;95152.13;;;4.80;72.83
8059;BME280;75058;42.668;23.396;2024-03-08T02:36:38;95154.38;;;4.83;72.70
8059;BME280;75058;42.668;23.396;2024-03-08T02:39:08;95157.38;;;4.44;72.52
8059;BME280;75058;42.668;23.396;2024-03-08T02:41:37;95160.88;;;4.36;73.27
8059;BME280;75058;42.668;23.396;2024-03-08T02:44:05;95150.09;;;4.33;71.15
8059;BME280;75058;42.668;23.396;2024-03-08T02:46:33;95158.84;;;4.32;71.29
8059;BME280;75058;42.668;23.396;2024-03-08T02:49:02;95158.25;;;4.30;71.73
8059;BME280;75058;42.668;23.396;2024-03-08T02:51:30;95161.94;;;4.42;72.15
8059;BME280;75058;42.668;23.396;2024-03-08T02:53:58;95164.06;;;4.95;71.33
8059;BME280;75058;42.668;23.396;2024-03-08T02:56:28;95142.09;;;4.70;71.27
8059;BME280;75058;42.668;23.396;2024-03-08T02:58:56;95161.91;;;4.78;70.95
8059;BME280;75058;42.668;23.396;2024-03-08T03:01:24;95159.69;;;4.96;71.15
8059;BME280;75058;42.668;23.396;2024-03-08T03:03:53;95165.78;;;4.88;70.09
8059;BME280;75058;42.668;23.396;2024-03-08T03:06:21;95160.66;;;4.95;68.93
8059;BME280;75058;42.668;23.396;2024-03-08T03:08:49;95162.31;;;5.02;68.03
8059;BME280;75058;42.668;23.396;2024-03-08T03:11:18;95166.28;;;4.98;67.84
8059;BME280;75058;42.668;23.396;2024-03-08T03:13:47;95169.53;;;4.86;67.42
8059;BME280;75058;42.668;23.396;2024-03-08T03:16:18;95175.78;;;4.91;66.41
8059;BME280;75058;42.668;23.396;2024-03-08T03:18:47;95176.34;;;4.65;67.24
8059;BME280;75058;42.668;23.396;2024-03-08T03:21:16;95176.09;;;4.25;67.40
8059;BME280;75058;42.668;23.396;2024-03-08T03:23:44;95179.88;;;4.08;67.10
8059;BME280;75058;42.668;23.396;2024-03-08T03:26:12;95183.25;;;3.93;68.08
8059;BME280;75058;42.668;23.396;2024-03-08T03:28:44;95185.06;;;4.08;67.35
8059;BME280;75058;42.668;23.396;2024-03-08T03:31:13;95184.06;;;4.09;67.95
8059;BME280;75058;42.668;23.396;2024-03-08T03:33:41;95185.06;;;4.08;67.20
8059;BME280;75058;42.668;23.396;2024-03-08T03:36:10;95192.44;;;4.11;67.46
8059;BME280;75058;42.668;23.396;2024-03-08T03:38:38;95187.56;;;4.01;67.52
8059;BME280;75058;42.668;23.396;2024-03-08T03:41:06;95191.47;;;4.12;67.62
8059;BME280;75058;42.668;23.396;2024-03-08T03:43:37;95190.63;;;4.40;67.13
8059;BME280;75058;42.668;23.396;2024-03-08T03:46:06;95195.06;;;4.46;66.97
8059;BME280;75058;42.668;23.396;2024-03-08T03:48:36;95188.38;;;4.02;66.96
8059;BME280;75058;42.668;23.396;2024-03-08T03:51:04;95201.25;;;4.31;67.24
8059;BME280;75058;42.668;23.396;2024-03-08T03:53:32;95203.00;;;4.09;66.57
8059;BME280;75058;42.668;23.396;2024-03-08T03:56:00;95201.22;;;4.10;66.73
8059;BME280;75058;42.668;23.396;2024-03-08T03:58:28;95193.56;;;4.37;68.13
8059;BME280;75058;42.668;23.396;2024-03-08T04:00:56;95200.94;;;4.55;67.92
8059;BME280;75058;42.668;23.396;2024-03-08T04:03:24;95204.72;;;4.95;67.43
8059;BME280;75058;42.668;23.396;2024-03-08T04:05:53;95206.03;;;4.84;66.23
8059;BME280;75058;42.668;23.396;2024-03-08T04:08:21;95206.59;;;4.44;66.58
8059;BME280;75058;42.668;23.396;2024-03-08T04:10:50;95213.00;;;4.48;67.46
8059;BME280;75058;42.668;23.396;2024-03-08T04:13:19;95215.00;;;4.46;66.35
8059;BME280;75058;42.668;23.396;2024-03-08T04:15:47;95208.84;;;4.47;67.61
8059;BME280;75058;42.668;23.396;2024-03-08T04:18:16;95210.31;;;4.56;66.40
8059;BME280;75058;42.668;23.396;2024-03-08T04:20:45;95218.44;;;4.03;67.00
8059;BME280;75058;42.668;23.396;2024-03-08T04:23:14;95228.06;;;4.09;67.86
8059;BME280;75058;42.668;23.396;2024-03-08T04:25:44;95231.28;;;3.81;68.55
8059;BME280;75058;42.668;23.396;2024-03-08T04:28:13;95236.56;;;3.88;68.90
8059;BME280;75058;42.668;23.396;2024-03-08T04:30:40;95233.34;;;3.86;68.45
8059;BME280;75058;42.668;23.396;2024-03-08T04:33:10;95234.06;;;3.80;68.44
8059;BME280;75058;42.668;23.396;2024-03-08T04:35:38;95247.78;;;3.66;68.61
8059;BME280;75058;42.668;23.396;2024-03-08T04:38:06;95233.59;;;3.76;68.33
8059;BME280;75058;42.668;23.396;2024-03-08T04:40:35;95243.78;;;3.63;68.45
8059;BME280;75058;42.668;23.396;2024-03-08T04:43:03;95246.09;;;3.73;68.95
8059;BME280;75058;42.668;23.396;2024-03-08T04:45:32;95246.81;;;3.96;68.76
8059;BME280;75058;42.668;23.396;2024-03-08T04:48:00;95248.38;;;4.41;68.62
8059;BME280;75058;42.668;23.396;2024-03-08T04:50:28;95242.06;;;4.43;67.34
8059;BME280;75058;42.668;23.396;2024-03-08T04:52:56;95243.06;;;4.42;68.27
8059;BME280;75058;42.668;23.396;2024-03-08T04:55:24;95252.06;;;4.46;67.76
8059;BME280;75058;42.668;23.396;2024-03-08T04:57:54;95253.50;;;4.49;67.70
8059;BME280;75058;42.668;23.396;2024-03-08T05:00:22;95251.53;;;4.36;66.84
8059;BME280;75058;42.668;23.396;2024-03-08T05:02:50;95254.91;;;4.51;66.15
8059;BME280;75058;42.668;23.396;2024-03-08T05:05:20;95260.56;;;4.40;67.19
8059;BME280;75058;42.668;23.396;2024-03-08T05:07:49;95260.34;;;4.56;67.02
8059;BME280;75058;42.668;23.396;2024-03-08T05:10:17;95263.06;;;4.34;68.01
8059;BME280;75058;42.668;23.396;2024-03-08T05:12:45;95268.44;;;3.88;70.52
8059;BME280;75058;42.668;23.396;2024-03-08T05:15:15;95271.34;;;3.85;70.57
8059;BME280;75058;42.668;23.396;2024-03-08T05:17:43;95270.28;;;3.80;70.99
8059;BME280;75058;42.668;23.396;2024-03-08T05:20:11;95274.94;;;3.84;71.61
8059;BME280;75058;42.668;23.396;2024-03-08T05:22:40;95271.88;;;3.81;71.02
8059;BME280;75058;42.668;23.396;2024-03-08T05:25:08;95273.13;;;3.70;71.37
8059;BME280;75058;42.668;23.396;2024-03-08T05:27:37;95281.19;;;3.90;71.30
8059;BME280;75058;42.668;23.396;2024-03-08T05:30:06;95281.41;;;3.66;70.84
8059;BME280;75058;42.668;23.396;2024-03-08T05:32:42;95292.56;;;3.66;72.46
8059;BME280;75058;42.668;23.396;2024-03-08T05:35:11;95299.06;;;3.62;72.47
8059;BME280;75058;42.668;23.396;2024-03-08T05:37:39;95312.91;;;3.55;71.89
8059;BME280;75058;42.668;23.396;2024-03-08T05:40:08;95305.03;;;3.48;71.91
8059;BME280;75058;42.668;23.396;2024-03-08T05:42:43;95310.09;;;3.42;72.16
8059;BME280;75058;42.668;23.396;2024-03-08T05:45:11;95309.97;;;3.35;72.76
8059;BME280;75058;42.668;23.396;2024-03-08T05:47:42;95323.16;;;3.40;72.19
8059;BME280;75058;42.668;23.396;2024-03-08T05:50:10;95327.13;;;3.51;72.06
8059;BME280;75058;42.668;23.396;2024-03-08T05:52:38;95330.41;;;3.22;72.30
8059;BME280;75058;42.668;23.396;2024-03-08T05:55:07;95327.09;;;3.13;72.23
8059;BME280;75058;42.668;23.396;2024-03-08T05:57:36;95328.56;;;3.08;72.16
8059;BME280;75058;42.668;23.396;2024-03-08T06:00:07;95328.03;;;3.21;73.12
8059;BME280;75058;42.668;23.396;2024-03-08T06:02:38;95343.97;;;3.47;72.49
8059;BME280;75058;42.668;23.396;2024-03-08T06:05:10;95336.44;;;3.60;72.03
8059;BME280;75058;42.668;23.396;2024-03-08T06:07:38;95339.38;;;3.57;71.62
8059;BME280;75058;42.668;23.396;2024-03-08T06:10:08;95337.25;;;3.60;71.12
8059;BME280;75058;42.668;23.396;2024-03-08T06:12:38;95343.19;;;3.83;70.92
8059;BME280;75058;42.668;23.396;2024-03-08T06:15:09;95353.94;;;3.95;71.06
8059;BME280;75058;42.668;23.396;2024-03-08T06:17:41;95346.69;;;3.90;70.20
8059;BME280;75058;42.668;23.396;2024-03-08T06:20:11;95345.59;;;3.85;70.58
8059;BME280;75058;42.668;23.396;2024-03-08T06:22:40;95342.25;;;4.14;69.96
8059;BME280;75058;42.668;23.396;2024-03-08T06:25:09;95353.69;;;3.67;70.98
8059;BME280;75058;42.668;23.396;2024-03-08T06:27:38;95350.47;;;4.17;70.68
8059;BME280;75058;42.668;23.396;2024-03-08T06:30:06;95351.81;;;4.28;69.94
8059;BME280;75058;42.668;23.396;2024-03-08T06:32:36;95356.19;;;4.13;69.60
8059;BME280;75058;42.668;23.396;2024-03-08T06:35:06;95358.41;;;4.16;69.44
8059;BME280;75058;42.668;23.396;2024-03-08T06:37:36;95361.19;;;4.00;69.81
8059;BME280;75058;42.668;23.396;2024-03-08T06:40:05;95350.56;;;4.24;69.59
8059;BME280;75058;42.668;23.396;2024-03-08T06:42:34;95356.97;;;4.13;69.36
8059;BME280;75058;42.668;23.396;2024-03-08T06:45:03;95355.84;;;4.74;68.31
8059;BME280;75058;42.668;23.396;2024-03-08T06:47:32;95354.19;;;4.88;66.25
8059;BME280;75058;42.668;23.396;2024-03-08T06:50:01;95355.38;;;4.85;67.63
8059;BME280;75058;42.668;23.396;2024-03-08T06:52:29;95357.47;;;4.17;66.82
8059;BME280;75058;42.668;23.396;2024-03-08T06:54:58;95362.69;;;4.09;67.49
8059;BME280;75058;42.668;23.396;2024-03-08T06:57:28;95369.38;;;4.03;67.61
8059;BME280;75058;42.668;23.396;2024-03-08T06:59:57;95374.91;;;4.00;66.69
8059;BME280;75058;42.668;23.396;2024-03-08T07:02:25;95372.88;;;4.10;65.55
8059;BME280;75058;42.668;23.396;2024-03-08T07:04:53;95373.03;;;4.09;65.35
8059;BME280;75058;42.668;23.396;2024-03-08T07:07:21;95362.34;;;4.26;65.31
8059;BME280;75058;42.668;23.396;2024-03-08T07:09:49;95365.66;;;4.35;63.77
8059;BME280;75058;42.668;23.396;2024-03-08T07:12:18;95374.69;;;4.24;64.41
8059;BME280;75058;42.668;23.396;2024-03-08T07:14:47;95374.78;;;4.31;64.68
8059;BME280;75058;42.668;23.396;2024-03-08T07:17:15;95368.97;;;4.87;63.25
8059;BME280;75058;42.668;23.396;2024-03-08T07:19:43;95374.78;;;4.60;62.79
8059;BME280;75058;42.668;23.396;2024-03-08T07:22:11;95374.97;;;4.44;62.70
8059;BME280;75058;42.668;23.396;2024-03-08T07:24:39;95374.34;;;4.27;63.68
8059;BME280;75058;42.668;23.396;2024-03-08T07:27:24;95377.13;;;4.55;63.44
8059;BME280;75058;42.668;23.396;2024-03-08T07:29:52;95371.66;;;4.94;62.50
8059;BME280;75058;42.668;23.396;2024-03-08T07:32:34;95383.78;;;4.93;61.93
8059;BME280;75058;42.668;23.396;2024-03-08T07:35:02;95379.44;;;4.50;64.02
8059;BME280;75058;42.668;23.396;2024-03-08T07:37:30;95381.44;;;5.13;63.32
8059;BME280;75058;42.668;23.396;2024-03-08T07:39:59;95374.25;;;4.50;63.66
8059;BME280;75058;42.668;23.396;2024-03-08T07:42:28;95382.00;;;4.64;63.88
8059;BME280;75058;42.668;23.396;2024-03-08T07:44:56;95389.72;;;4.73;62.74
8059;BME280;75058;42.668;23.396;2024-03-08T07:47:24;95390.06;;;4.84;63.87
8059;BME280;75058;42.668;23.396;2024-03-08T07:49:53;95354.53;;;4.49;64.29
8059;BME280;75058;42.668;23.396;2024-03-08T07:52:21;95384.97;;;4.61;64.24
8059;BME280;75058;42.668;23.396;2024-03-08T07:54:50;95379.47;;;5.15;63.47
8059;BME280;75058;42.668;23.396;2024-03-08T07:57:18;95382.09;;;5.00;63.65
8059;BME280;75058;42.668;23.396;2024-03-08T07:59:48;95386.44;;;5.14;63.13
8059;BME280;75058;42.668;23.396;2024-03-08T08:02:16;95375.41;;;4.91;64.39
8059;BME280;75058;42.668;23.396;2024-03-08T08:04:45;95308.56;;;4.72;63.81
8059;BME280;75058;42.668;23.396;2024-03-08T08:07:13;95384.06;;;4.98;63.83
8059;BME280;75058;42.668;23.396;2024-03-08T08:09:41;95384.31;;;5.03;63.05
8059;BME280;75058;42.668;23.396;2024-03-08T08:12:09;95373.69;;;5.55;63.30
8059;BME280;75058;42.668;23.396;2024-03-08T08:14:38;95385.38;;;4.94;63.21
8059;BME280;75058;42.668;23.396;2024-03-08T08:17:09;95379.63;;;4.63;64.93
8059;BME280;75058;42.668;23.396;2024-03-08T08:19:37;95379.78;;;4.76;64.22
8059;BME280;75058;42.668;23.396;2024-03-08T08:22:06;95382.00;;;4.79;63.20
8059;BME280;75058;42.668;23.396;2024-03-08T08:24:35;95376.91;;;5.36;64.09
8059;BME280;75058;42.668;23.396;2024-03-08T08:27:04;95374.94;;;4.88;64.17
8059;BME280;75058;42.668;23.396;2024-03-08T08:29:33;95377.09;;;5.56;61.80
8059;BME280;75058;42.668;23.396;2024-03-08T08:32:02;95374.75;;;5.04;61.17
8059;BME280;75058;42.668;23.396;2024-03-08T08:34:31;95380.94;;;5.24;61.11
8059;BME280;75058;42.668;23.396;2024-03-08T08:36:59;95379.72;;;5.56;60.35
8059;BME280;75058;42.668;23.396;2024-03-08T08:39:28;95377.53;;;5.38;61.44
8059;BME280;75058;42.668;23.396;2024-03-08T08:41:56;95377.53;;;5.38;61.81
8059;BME280;75058;42.668;23.396;2024-03-08T08:44:24;95374.81;;;5.67;61.40
8059;BME280;75058;42.668;23.396;2024-03-08T08:46:52;95369.47;;;6.79;59.17
8059;BME280;75058;42.668;23.396;2024-03-08T08:49:32;95368.25;;;5.92;58.86
8059;BME280;75058;42.668;23.396;2024-03-08T08:52:01;95370.97;;;5.63;60.09
8059;BME280;75058;42.668;23.396;2024-03-08T08:54:41;95369.16;;;6.61;57.72
8059;BME280;75058;42.668;23.396;2024-03-08T08:57:15;95357.16;;;5.98;57.44
8059;BME280;75058;42.668;23.396;2024-03-08T08:59:43;95357.25;;;5.90;58.80
8059;BME280;75058;42.668;23.396;2024-03-08T09:02:12;95361.84;;;6.71;57.74
8059;BME280;75058;42.668;23.396;2024-03-08T09:04:45;95348.56;;;5.98;58.10
8059;BME280;75058;42.668;23.396;2024-03-08T09:07:14;95349.00;;;6.36;56.70
8059;BME280;75058;42.668;23.396;2024-03-08T09:09:42;95357.94;;;7.01;55.70
8059;BME280;75058;42.668;23.396;2024-03-08T09:12:11;95356.50;;;6.17;56.51
8059;BME280;75058;42.668;23.396;2024-03-08T09:14:40;95352.44;;;6.77;55.04
8059;BME280;75058;42.668;23.396;2024-03-08T09:17:08;95353.31;;;6.90;55.16
8059;BME280;75058;42.668;23.396;2024-03-08T09:19:36;95353.22;;;6.71;56.24
8059;BME280;75058;42.668;23.396;2024-03-08T09:22:06;95359.38;;;6.63;56.15
8059;BME280;75058;42.668;23.396;2024-03-08T09:24:34;95352.94;;;6.59;57.10
8059;BME280;75058;42.668;23.396;2024-03-08T09:27:02;95354.53;;;6.94;56.01
8059;BME280;75058;42.668;23.396;2024-03-08T09:29:30;95355.78;;;7.05;56.83
8059;BME280;75058;42.668;23.396;2024-03-08T09:31:58;95353.34;;;7.90;54.16
8059;BME280;75058;42.668;23.396;2024-03-08T09:34:27;95349.72;;;7.98;53.47
8059;BME280;75058;42.668;23.396;2024-03-08T09:37:04;95354.94;;;6.98;54.69
8059;BME280;75058;42.668;23.396;2024-03-08T09:39:33;95356.66;;;6.44;55.82
8059;BME280;75058;42.668;23.396;2024-03-08T09:42:01;95351.53;;;6.97;55.66
8059;BME280;75058;42.668;23.396;2024-03-08T09:44:29;95352.94;;;7.73;53.70
8059;BME280;75058;42.668;23.396;2024-03-08T09:46:58;95356.41;;;7.14;55.46
8059;BME280;75058;42.668;23.396;2024-03-08T09:49:26;95347.63;;;6.74;54.64
8059;BME280;75058;42.668;23.396;2024-03-08T09:51:55;95350.00;;;7.16;55.10
8059;BME280;75058;42.668;23.396;2024-03-08T09:54:25;95352.97;;;6.66;54.37
8059;BME280;75058;42.668;23.396;2024-03-08T09:56:54;95349.03;;;6.76;54.41
8059;BME280;75058;42.668;23.396;2024-03-08T09:59:22;95349.50;;;6.93;54.51
8059;BME280;75058;42.668;23.396;2024-03-08T10:02:16;95349.56;;;7.06;53.98
8059;BME280;75058;42.668;23.396;2024-03-08T10:04:45;95356.69;;;6.50;55.92
8059;BME280;75058;42.668;23.396;2024-03-08T10:07:13;95347.59;;;6.67;56.52
8059;BME280;75058;42.668;23.396;2024-03-08T10:09:42;95346.50;;;6.89;54.89
8059;BME280;75058;42.668;23.396;2024-03-08T10:12:17;95351.34;;;6.58;55.48
8059;BME280;75058;42.668;23.396;2024-03-08T10:14:46;95352.00;;;6.67;55.12
8059;BME280;75058;42.668;23.396;2024-03-08T10:17:14;95355.94;;;7.03;54.28
8059;BME280;75058;42.668;23.396;2024-03-08T10:19:49;95353.44;;;6.76;55.43
8059;BME280;75058;42.668;23.396;2024-03-08T10:22:19;95339.34;;;6.57;56.17
8059;BME280;75058;42.668;23.396;2024-03-08T10:24:47;95351.69;;;6.89;54.13
8059;BME280;75058;42.668;23.396;2024-03-08T10:27:18;95333.66;;;7.42;53.24
8059;BME280;75058;42.668;23.396;2024-03-08T10:29:47;95333.53;;;8.28;51.07
8059;BME280;75058;42.668;23.396;2024-03-08T10:32:17;95332.81;;;8.85;49.79
8059;BME280;75058;42.668;23.396;2024-03-08T10:34:45;95347.31;;;7.57;52.03
8059;BME280;75058;42.668;23.396;2024-03-08T10:37:21;95337.50;;;7.72;53.21
8059;BME280;75058;42.668;23.396;2024-03-08T10:40:02;95342.59;;;7.20;55.28
8059;BME280;75058;42.668;23.396;2024-03-08T10:42:41;95342.44;;;6.80;54.33
8059;BME280;75058;42.668;23.396;2024-03-08T10:45:21;95338.56;;;7.11;54.30
8059;BME280;75058;42.668;23.396;2024-03-08T10:48:03;95334.94;;;6.98;54.02
8059;BME280;75058;42.668;23.396;2024-03-08T10:50:32;95330.91;;;6.89;54.53
8059;BME280;75058;42.668;23.396;2024-03-08T10:53:01;95317.38;;;7.14;53.25
8059;BME280;75058;42.668;23.396;2024-03-08T10:55:31;95325.09;;;6.87;53.82
8059;BME280;75058;42.668;23.396;2024-03-08T10:58:02;95327.75;;;7.07;53.91
8059;BME280;75058;42.668;23.396;2024-03-08T11:00:30;95320.78;;;7.08;54.15
8059;BME280;75058;42.668;23.396;2024-03-08T11:02:58;95327.34;;;7.10;53.83
8059;BME280;75058;42.668;23.396;2024-03-08T11:05:36;95324.47;;;6.85;54.24
8059;BME280;75058;42.668;23.396;2024-03-08T11:08:17;95322.75;;;6.99;54.13
8059;BME280;75058;42.668;23.396;2024-03-08T11:10:47;95312.72;;;6.96;54.75
8059;BME280;75058;42.668;23.396;2024-03-08T11:13:35;95320.13;;;6.92;54.23
8059;BME280;75058;42.668;23.396;2024-03-08T11:16:07;95304.66;;;7.58;53.03
8059;BME280;75058;42.668;23.396;2024-03-08T11:18:36;95300.97;;;7.20;53.01
8059;BME280;75058;42.668;23.396;2024-03-08T11:21:08;95305.56;;;7.11;53.44
8059;BME280;75058;42.668;23.396;2024-03-08T11:23:40;95263.47;;;6.88;52.75
8059;BME280;75058;42.668;23.396;2024-03-08T11:26:18;95297.22;;;7.42;52.38
8059;BME280;75058;42.668;23.396;2024-03-08T11:28:48;95294.84;;;8.06;50.62
8059;BME280;75058;42.668;23.396;2024-03-08T11:31:23;95297.03;;;7.50;51.72
8059;BME280;75058;42.668;23.396;2024-03-08T11:33:53;95289.41;;;7.94;49.90
8059;BME280;75058;42.668;23.396;2024-03-08T11:36:22;95287.03;;;8.06;50.60
8059;BME280;75058;42.668;23.396;2024-03-08T11:38:52;95287.13;;;8.57;48.35
8059;BME280;75058;42.668;23.396;2024-03-08T11:41:23;95284.53;;;8.57;48.30
8059;BME280;75058;42.668;23.396;2024-03-08T11:44:03;95290.44;;;7.87;51.34
8059;BME280;75058;42.668;23.396;2024-03-08T11:46:33;95283.41;;;7.87;51.13
8059;BME280;75058;42.668;23.396;2024-03-08T11:49:01;95285.81;;;7.62;51.94
8059;BME280;75058;42.668;23.396;2024-03-08T11:51:30;95279.22;;;7.93;51.96
8059;BME280;75058;42.668;23.396;2024-03-08T11:53:59;95285.41;;;7.46;52.05
8059;BME280;75058;42.668;23.396;2024-03-08T11:56:28;95279.00;;;8.07;50.75
8059;BME280;75058;42.668;23.396;2024-03-08T11:58:59;95281.22;;;7.97;50.74
8059;BME280;75058;42.668;23.396;2024-03-08T12:01:30;95271.81;;;8.73;49.91
8059;BME280;75058;42.668;23.396;2024-03-08T12:03:59;95278.75;;;8.35;50.53
8059;BME280;75058;42.668;23.396;2024-03-08T12:06:36;95274.97;;;8.18;49.75
8059;BME280;75058;42.668;23.396;2024-03-08T12:09:08;95276.59;;;7.99;51.02
8059;BME280;75058;42.668;23.396;2024-03-08T12:11:37;95277.00;;;7.90;51.34
8059;BME280;75058;42.668;23.396;2024-03-08T12:14:06;95279.38;;;8.04;51.13
8059;BME280;75058;42.668;23.396;2024-03-08T12:16:37;95281.00;;;7.53;52.63
8059;BME280;75058;42.668;23.396;2024-03-08T12:19:06;95289.81;;;7.58;52.15
8059;BME280;75058;42.668;23.396;2024-03-08T12:21:36;95277.19;;;7.55;52.56
8059;BME280;75058;42.668;23.396;2024-03-08T12:24:05;95282.59;;;7.34;52.71
8059;BME280;75058;42.668;23.396;2024-03-08T12:26:36;95276.41;;;7.61;52.22
8059;BME280;75058;42.668;23.396;2024-03-08T12:29:18;95274.59;;;7.75;51.28
8059;BME280;75058;42.668;23.396;2024-03-08T12:31:53;95276.59;;;7.86;50.70
8059;BME280;75058;42.668;23.396;2024-03-08T12:34:22;95273.59;;;7.56;51.96
8059;BME280;75058;42.668;23.396;2024-03-08T12:36:51;95274.00;;;7.53;51.52
8059;BME280;75058;42.668;23.396;2024-03-08T12:39:22;95264.19;;;7.68;51.73
8059;BME280;75058;42.668;23.396;2024-03-08T12:41:54;95225.44;;;8.31;50.14
8059;BME280;75058;42.668;23.396;2024-03-08T12:44:24;95255.97;;;7.65;51.64
8059;BME280;75058;42.668;23.396;2024-03-08T12:46:54;95247.75;;;7.74;51.33
8059;BME280;75058;42.668;23.396;2024-03-08T12:49:23;95256.38;;;7.55;51.54
8059;BME280;75058;42.668;23.396;2024-03-08T12:51:52;95243.16;;;7.31;51.62
8059;BME280;75058;42.668;23.396;2024-03-08T12:54:20;95258.19;;;7.35;51.77
8059;BME280;75058;42.668;23.396;2024-03-08T12:56:50;95250.19;;;7.69;50.97
8059;BME280;75058;42.668;23.396;2024-03-08T12:59:21;95254.97;;;7.79;51.35
8059;BME280;75058;42.668;23.396;2024-03-08T13:01:50;95247.56;;;7.83;50.60
8059;BME280;75058;42.668;23.396;2024-03-08T13:04:22;95246.91;;;8.07;50.00
8059;BME280;75058;42.668;23.396;2024-03-08T13:06:50;95248.34;;;7.63;50.86
8059;BME280;75058;42.668;23.396;2024-03-08T13:09:21;95255.19;;;7.64;50.81
8059;BME280;75058;42.668;23.396;2024-03-08T13:11:50;95257.56;;;7.53;50.07
8059;BME280;75058;42.668;23.396;2024-03-08T13:14:21;95255.38;;;7.69;50.75
8059;BME280;75058;42.668;23.396;2024-03-08T13:16:49;95258.38;;;7.73;50.36
8059;BME280;75058;42.668;23.396;2024-03-08T13:19:18;95253.59;;;7.57;49.70
8059;BME280;75058;42.668;23.396;2024-03-08T13:21:50;95258.16;;;7.88;49.42